createdAt,value
2024-01-04T00:00:25.110Z,12.50
2024-01-04T00:02:53.548Z,12.80
2024-01-04T00:05:21.868Z,12.00
2024-01-04T00:07:49.890Z,13.50
2024-01-04T00:10:19.319Z,14.10
2024-01-04T00:12:49.303Z,13.00
2024-01-04T00:15:17.612Z,12.80
2024-01-04T00:17:46.108Z,13.40
2024-01-04T00:20:14.455Z,10.30
2024-01-04T00:22:43.368Z,12.80
2024-01-04T00:25:13.138Z,12.50
2024-01-04T00:27:42.122Z,12.70
2024-01-04T00:30:11.021Z,12.50
2024-01-04T00:32:39.262Z,11.90
2024-01-04T00:35:07.868Z,14.20
2024-01-04T00:37:36.414Z,14.80
2024-01-04T00:40:05.026Z,13.60
2024-01-04T00:42:34.016Z,13.60
2024-01-04T00:45:02.320Z,14.80
2024-01-04T00:47:30.394Z,14.50
2024-01-04T00:49:59.284Z,15.30
2024-01-04T00:52:28.448Z,14.10
2024-01-04T00:54:58.912Z,14.70
2024-01-04T00:57:27.406Z,16.20
2024-01-04T00:59:56.373Z,15.10
2024-01-04T01:02:25.003Z,14.40
2024-01-04T01:04:54.896Z,15.30
2024-01-04T01:07:23.257Z,15.60
2024-01-04T01:09:54.213Z,15.40
2024-01-04T01:12:22.851Z,14.40
2024-01-04T01:14:51.034Z,15.90
2024-01-04T01:17:19.327Z,15.30
2024-01-04T01:19:48.489Z,17.20
2024-01-04T01:22:16.536Z,17.20
2024-01-04T01:24:44.659Z,18.40
2024-01-04T01:27:13.007Z,16.70
2024-01-04T01:29:42.021Z,18.10
2024-01-04T01:32:10.608Z,17.10
2024-01-04T01:34:40.083Z,20.10
2024-01-04T01:37:08.501Z,17.30
2024-01-04T01:39:37.122Z,19.80
2024-01-04T01:42:06.246Z,20.00
2024-01-04T01:44:35.473Z,20.20
2024-01-04T01:47:03.651Z,21.30
2024-01-04T01:49:32.850Z,20.60
2024-01-04T01:52:00.957Z,19.60
2024-01-04T01:54:29.098Z,20.40
2024-01-04T01:56:57.464Z,21.20
2024-01-04T01:59:27.756Z,23.00
2024-01-04T02:01:57.326Z,21.90
2024-01-04T02:04:26.122Z,24.10
2024-01-04T02:06:54.457Z,23.90
2024-01-04T02:09:22.904Z,24.30
2024-01-04T02:11:51.647Z,23.20
2024-01-04T02:14:19.778Z,24.40
2024-01-04T02:16:50.748Z,26.30
2024-01-04T02:19:19.137Z,24.00
2024-01-04T02:21:47.606Z,24.70
2024-01-04T02:24:15.925Z,24.40
2024-01-04T02:26:44.213Z,24.10
2024-01-04T02:29:12.497Z,24.80
2024-01-04T02:31:40.806Z,25.90
2024-01-04T02:34:09.485Z,23.70
2024-01-04T02:36:37.727Z,25.40
2024-01-04T02:39:06.998Z,22.80
2024-01-04T02:41:35.211Z,23.30
2024-01-04T02:44:04.569Z,24.30
2024-01-04T02:46:34.326Z,24.40
2024-01-04T02:49:02.647Z,20.20
2024-01-04T02:51:31.650Z,22.60
2024-01-04T02:54:00.736Z,22.50
2024-01-04T02:56:31.289Z,21.80
2024-01-04T02:59:00.568Z,21.00
2024-01-04T03:01:28.635Z,21.30
2024-01-04T03:03:57.293Z,18.70
2024-01-04T03:06:27.131Z,20.50
2024-01-04T03:08:56.425Z,18.50
2024-01-04T03:11:24.500Z,19.80
2024-01-04T03:13:52.676Z,19.00
2024-01-04T03:16:22.523Z,20.00
2024-01-04T03:18:51.686Z,18.30
2024-01-04T03:21:20.430Z,21.60
2024-01-04T03:23:49.613Z,21.50
2024-01-04T03:26:18.379Z,22.20
2024-01-04T03:28:46.542Z,25.00
2024-01-04T03:31:15.093Z,25.30
2024-01-04T03:33:44.536Z,24.10
2024-01-04T03:36:15.855Z,26.30
2024-01-04T03:38:44.231Z,28.70
2024-01-04T03:41:12.527Z,31.10
2024-01-04T03:43:40.959Z,23.00
2024-01-04T03:46:14.291Z,22.60
2024-01-04T03:48:44.318Z,22.00
2024-01-04T03:51:15.088Z,21.20
2024-01-04T03:53:43.359Z,21.30
2024-01-04T03:56:11.571Z,20.60
2024-01-04T03:58:39.890Z,20.50
2024-01-04T04:01:08.978Z,19.30
2024-01-04T04:03:37.093Z,19.10
2024-01-04T04:06:06.986Z,17.30
2024-01-04T04:08:37.752Z,14.90
2024-01-04T04:11:16.339Z,16.00
2024-01-04T04:13:44.878Z,14.80
2024-01-04T04:16:13.262Z,17.00
2024-01-04T04:18:41.507Z,15.80
2024-01-04T04:21:12.190Z,14.90
2024-01-04T04:23:40.400Z,16.50
2024-01-04T04:26:08.712Z,17.50
2024-01-04T04:28:36.933Z,19.90
2024-01-04T04:31:05.054Z,20.20
2024-01-04T04:33:33.391Z,22.70
2024-01-04T04:36:02.549Z,24.60
2024-01-04T04:38:31.163Z,23.00
2024-01-04T04:40:59.422Z,24.50
2024-01-04T04:43:27.503Z,25.00
2024-01-04T04:45:57.295Z,25.20
2024-01-04T04:48:25.985Z,24.30
2024-01-04T04:50:55.424Z,26.30
2024-01-04T04:53:23.540Z,26.00
2024-01-04T04:55:52.553Z,27.80
2024-01-04T04:58:20.718Z,36.50
2024-01-04T05:00:48.794Z,41.40
2024-01-04T05:03:16.920Z,47.70
2024-01-04T05:05:46.114Z,48.20
2024-01-04T05:08:14.095Z,58.60
2024-01-04T05:10:42.906Z,57.60
2024-01-04T05:13:11.822Z,41.40
2024-01-04T05:15:39.798Z,27.50
2024-01-04T05:18:10.323Z,25.00
2024-01-04T05:20:39.481Z,24.80
2024-01-04T05:23:08.515Z,23.80
2024-01-04T05:25:40.465Z,20.20
2024-01-04T05:28:11.013Z,20.50
2024-01-04T05:30:39.357Z,20.90
2024-01-04T05:33:07.920Z,19.70
2024-01-04T05:35:36.348Z,21.50
2024-01-04T05:38:04.702Z,20.90
2024-01-04T05:40:32.846Z,18.90
2024-01-04T05:43:01.693Z,21.60
2024-01-04T05:45:30.491Z,19.00
2024-01-04T05:47:58.644Z,18.10
2024-01-04T05:50:26.715Z,19.10
2024-01-04T05:52:54.753Z,17.70
2024-01-04T05:55:22.858Z,17.20
2024-01-04T05:57:51.017Z,16.50
2024-01-04T06:00:20.940Z,18.00
2024-01-04T06:02:49.324Z,19.60
2024-01-04T06:05:17.558Z,20.40
2024-01-04T06:07:48.827Z,19.20
2024-01-04T06:10:16.849Z,19.60
2024-01-04T06:12:45.111Z,20.10
2024-01-04T06:15:13.522Z,17.40
2024-01-04T06:17:42.219Z,19.70
2024-01-04T06:20:11.018Z,19.70
2024-01-04T06:22:40.758Z,18.40
2024-01-04T06:25:11.701Z,18.70
2024-01-04T06:27:39.969Z,20.70
2024-01-04T06:30:09.801Z,19.20
2024-01-04T06:32:39.079Z,19.40
2024-01-04T06:35:09.163Z,17.20
2024-01-04T06:37:37.229Z,18.60
2024-01-04T06:40:09.683Z,21.20
2024-01-04T06:42:38.842Z,17.30
2024-01-04T06:45:08.519Z,18.00
2024-01-04T06:47:38.115Z,16.80
2024-01-04T06:50:15.240Z,17.10
2024-01-04T06:52:47.004Z,16.20
2024-01-04T06:55:16.185Z,17.60
2024-01-04T06:57:44.210Z,16.40
2024-01-04T07:00:14.149Z,18.40
2024-01-04T07:02:42.422Z,16.70
2024-01-04T07:05:12.931Z,18.60
2024-01-04T07:07:42.000Z,18.90
2024-01-04T07:10:11.527Z,20.70
2024-01-04T07:12:41.221Z,18.70
2024-01-04T07:15:11.516Z,17.90
2024-01-04T07:17:40.328Z,20.40
2024-01-04T07:20:10.635Z,17.50
2024-01-04T07:22:39.735Z,17.40
2024-01-04T07:25:08.179Z,15.30
2024-01-04T07:27:36.401Z,13.00
2024-01-04T07:30:06.305Z,14.20
2024-01-04T07:32:35.270Z,15.30
2024-01-04T07:35:12.830Z,16.10
2024-01-04T07:37:46.059Z,13.20
2024-01-04T07:40:14.810Z,15.50
2024-01-04T07:42:43.993Z,13.30
2024-01-04T07:45:12.993Z,13.40
2024-01-04T07:47:41.707Z,13.00
2024-01-04T07:50:10.342Z,12.90
2024-01-04T07:52:40.826Z,12.80
2024-01-04T07:55:09.251Z,13.70
2024-01-04T07:57:37.338Z,17.00
2024-01-04T08:00:07.510Z,13.20
2024-01-04T08:02:45.339Z,12.60
2024-01-04T08:05:15.332Z,23.30
2024-01-04T08:07:45.095Z,13.80
2024-01-04T08:10:14.015Z,14.30
2024-01-04T08:12:44.418Z,14.20
2024-01-04T08:15:12.987Z,13.10
2024-01-04T08:17:41.643Z,13.40
2024-01-04T08:20:11.484Z,12.30
2024-01-04T08:22:39.863Z,12.80
2024-01-04T08:25:09.621Z,13.00
2024-01-04T08:27:38.750Z,12.20
2024-01-04T08:30:08.313Z,13.50
2024-01-04T08:32:36.623Z,16.40
2024-01-04T08:35:05.719Z,12.90
2024-01-04T08:37:34.028Z,13.00
2024-01-04T08:40:02.432Z,11.60
2024-01-04T08:42:30.841Z,13.50
2024-01-04T08:45:00.270Z,12.90
2024-01-04T08:47:28.947Z,12.00
2024-01-04T08:50:02.401Z,12.70
2024-01-04T08:52:32.039Z,11.90
2024-01-04T08:55:00.349Z,12.40
2024-01-04T08:57:28.620Z,11.30
2024-01-04T08:59:58.007Z,11.70
2024-01-04T09:02:27.645Z,11.10
2024-01-04T09:04:58.541Z,11.70
2024-01-04T09:07:28.640Z,11.80
2024-01-04T09:09:58.389Z,11.30
2024-01-04T09:12:28.482Z,10.40
2024-01-04T09:14:56.855Z,11.00
2024-01-04T09:17:26.683Z,12.80
2024-01-04T09:19:55.185Z,13.90
2024-01-04T09:22:23.696Z,12.20
2024-01-04T09:24:53.092Z,10.30
2024-01-04T09:27:23.516Z,9.60
2024-01-04T09:29:51.806Z,9.60
2024-01-04T09:32:21.769Z,8.30
2024-01-04T09:34:51.493Z,9.10
2024-01-04T09:37:20.996Z,10.70
2024-01-04T09:39:50.568Z,13.30
2024-01-04T09:42:19.627Z,13.80
2024-01-04T09:44:48.294Z,11.60
2024-01-04T09:47:16.598Z,12.40
2024-01-04T09:49:45.970Z,10.30
2024-01-04T09:52:14.498Z,7.60
2024-01-04T09:54:42.542Z,6.40
2024-01-04T09:57:12.136Z,6.70
2024-01-04T09:59:40.357Z,7.80
2024-01-04T10:02:09.956Z,6.50
2024-01-04T10:04:38.839Z,7.70
2024-01-04T10:07:07.072Z,7.20
2024-01-04T10:09:55.992Z,6.70
2024-01-04T10:12:24.238Z,7.90
2024-01-04T10:14:52.454Z,7.80
2024-01-04T10:17:21.454Z,7.80
2024-01-04T10:19:49.627Z,9.50
2024-01-04T10:22:22.883Z,9.80
2024-01-04T10:24:52.919Z,9.10
2024-01-04T10:27:21.604Z,9.60
2024-01-04T10:29:53.109Z,9.80
2024-01-04T10:32:21.224Z,9.60
2024-01-04T10:34:51.827Z,9.50
2024-01-04T10:37:23.594Z,9.90
2024-01-04T10:39:59.394Z,10.20
2024-01-04T10:42:28.352Z,9.90
2024-01-04T10:44:57.220Z,9.30
2024-01-04T10:47:26.881Z,9.50
2024-01-04T10:49:59.426Z,10.20
2024-01-04T10:52:32.613Z,9.60
2024-01-04T10:55:01.976Z,11.30
2024-01-04T10:57:33.788Z,11.40
2024-01-04T11:00:08.575Z,10.50
2024-01-04T11:02:40.057Z,10.90
2024-01-04T11:05:10.873Z,11.70
2024-01-04T11:07:41.075Z,11.00
2024-01-04T11:10:10.802Z,12.70
2024-01-04T11:12:40.060Z,11.50
2024-01-04T11:15:08.578Z,12.70
2024-01-04T11:18:04.324Z,11.00
2024-01-04T11:20:47.798Z,10.40
2024-01-04T11:23:22.114Z,10.60
2024-01-04T11:26:27.951Z,11.10
2024-01-04T11:28:57.832Z,10.10
2024-01-04T11:31:27.406Z,9.70
2024-01-04T11:33:56.678Z,9.70
2024-01-04T11:36:25.384Z,10.70
2024-01-04T11:38:56.203Z,10.00
2024-01-04T11:41:38.432Z,10.60
2024-01-04T11:44:18.472Z,10.10
2024-01-04T11:46:47.622Z,8.90
2024-01-04T11:49:17.424Z,10.90
2024-01-04T11:51:47.212Z,9.20
2024-01-04T11:54:16.666Z,9.80
2024-01-04T11:56:45.626Z,9.00
2024-01-04T11:59:25.472Z,10.50
2024-01-04T12:01:53.744Z,9.90
2024-01-04T12:04:23.546Z,10.50
2024-01-04T12:06:51.766Z,9.80
2024-01-04T12:09:22.349Z,9.50
2024-01-04T12:11:55.814Z,11.60
2024-01-04T12:14:26.872Z,11.00
2024-01-04T12:16:55.408Z,10.50
2024-01-04T12:19:23.657Z,10.30
2024-01-04T12:21:52.252Z,10.40
2024-01-04T12:24:22.341Z,9.40
2024-01-04T12:26:52.222Z,10.30
2024-01-04T12:29:20.321Z,10.20
2024-01-04T12:31:50.674Z,9.70
2024-01-04T12:34:20.173Z,9.90
2024-01-04T12:36:48.783Z,9.50
2024-01-04T12:39:17.104Z,10.90
2024-01-04T12:41:47.734Z,11.50
2024-01-04T12:44:16.822Z,10.90
2024-01-04T12:46:48.609Z,9.80
2024-01-04T12:49:20.373Z,11.20
2024-01-04T12:51:51.360Z,10.70
2024-01-04T12:54:19.808Z,12.00
2024-01-04T12:56:48.174Z,12.00
2024-01-04T12:59:17.339Z,11.20
2024-01-04T13:01:45.937Z,12.20
2024-01-04T13:04:14.839Z,11.60
2024-01-04T13:06:43.635Z,12.50
2024-01-04T13:09:16.386Z,11.10
2024-01-04T13:11:45.785Z,12.30
2024-01-04T13:14:14.848Z,12.90
2024-01-04T13:16:43.027Z,13.50
2024-01-04T13:19:13.752Z,13.50
2024-01-04T13:21:44.183Z,14.50
2024-01-04T13:24:12.560Z,12.80
2024-01-04T13:26:44.608Z,14.60
2024-01-04T13:29:15.868Z,12.50
2024-01-04T13:31:44.212Z,12.70
2024-01-04T13:34:13.687Z,12.60
2024-01-04T13:36:42.490Z,11.90
2024-01-04T13:39:12.087Z,12.70
2024-01-04T13:41:46.153Z,12.10
2024-01-04T13:44:15.763Z,12.90
2024-01-04T13:46:44.424Z,12.50
2024-01-04T13:49:12.969Z,12.20
2024-01-04T13:51:45.933Z,13.20
2024-01-04T13:54:14.949Z,12.20
2024-01-04T13:56:43.732Z,12.30
2024-01-04T13:59:12.607Z,12.10
2024-01-04T14:01:42.160Z,11.70
2024-01-04T14:04:11.425Z,11.90
2024-01-04T14:06:40.378Z,11.20
2024-01-04T14:09:10.559Z,12.20
2024-01-04T14:11:39.481Z,12.40
2024-01-04T14:14:09.493Z,11.40
2024-01-04T14:16:38.398Z,12.90
2024-01-04T14:19:07.664Z,11.90
2024-01-04T14:21:35.931Z,12.60
2024-01-04T14:24:07.057Z,13.40
2024-01-04T14:26:35.334Z,12.30
2024-01-04T14:29:04.495Z,13.00
2024-01-04T14:31:33.523Z,13.00
2024-01-04T14:34:01.922Z,12.80
2024-01-04T14:36:30.172Z,13.40
2024-01-04T14:38:58.256Z,13.00
2024-01-04T14:41:26.366Z,14.40
2024-01-04T14:43:54.411Z,13.20
2024-01-04T14:46:24.555Z,12.60
2024-01-04T14:48:52.892Z,13.60
2024-01-04T14:51:22.659Z,15.30
2024-01-04T14:53:51.431Z,14.10
2024-01-04T14:56:19.657Z,13.10
2024-01-04T14:58:50.731Z,14.60
2024-01-04T15:01:23.379Z,14.10
2024-01-04T15:03:54.341Z,14.20
2024-01-04T15:06:23.255Z,13.50
2024-01-04T15:08:52.114Z,14.00
2024-01-04T15:11:21.440Z,12.80
2024-01-04T15:13:49.934Z,12.40
2024-01-04T15:16:19.577Z,12.50
2024-01-04T15:18:50.482Z,13.20
2024-01-04T15:21:21.401Z,12.30
2024-01-04T15:23:50.163Z,11.90
2024-01-04T15:26:18.626Z,11.80
2024-01-04T15:28:47.709Z,11.10
2024-01-04T15:31:15.781Z,12.00
2024-01-04T15:33:45.605Z,11.80
2024-01-04T15:36:15.991Z,15.10
2024-01-04T15:38:46.474Z,12.40
2024-01-04T15:41:14.534Z,12.80
2024-01-04T15:43:42.858Z,32.20
2024-01-04T15:46:11.943Z,93.80
2024-01-04T15:48:40.254Z,58.00
2024-01-04T15:51:08.831Z,53.20
2024-01-04T15:53:36.953Z,55.80
2024-01-04T15:56:05.478Z,15.30
2024-01-04T15:58:33.883Z,14.40
2024-01-04T16:01:02.068Z,13.60
2024-01-04T16:03:31.484Z,12.90
2024-01-04T16:06:02.364Z,12.40
2024-01-04T16:08:35.210Z,14.50
2024-01-04T16:11:04.199Z,13.20
2024-01-04T16:13:32.636Z,14.20
2024-01-04T16:16:01.379Z,12.30
2024-01-04T16:18:30.402Z,11.90
2024-01-04T16:20:58.596Z,11.60
2024-01-04T16:23:27.221Z,10.30
2024-01-04T16:25:55.457Z,12.50
2024-01-04T16:28:23.802Z,12.60
2024-01-04T16:30:53.037Z,10.20
2024-01-04T16:33:21.999Z,10.40
2024-01-04T16:35:51.280Z,10.30
2024-01-04T16:38:21.003Z,10.30
2024-01-04T16:40:49.262Z,9.30
2024-01-04T16:43:17.752Z,10.70
2024-01-04T16:45:49.159Z,10.80
2024-01-04T16:48:18.356Z,9.30
2024-01-04T16:50:47.064Z,9.20
2024-01-04T16:53:15.679Z,9.60
2024-01-04T16:55:43.740Z,10.80
2024-01-04T16:58:15.936Z,10.30
2024-01-04T17:00:45.355Z,11.00
2024-01-04T17:03:14.184Z,10.00
2024-01-04T17:05:42.909Z,10.70
2024-01-04T17:08:11.394Z,9.40
2024-01-04T17:10:40.103Z,9.40
2024-01-04T17:13:13.010Z,9.80
2024-01-04T17:15:42.277Z,8.70
2024-01-04T17:18:10.852Z,8.50
2024-01-04T17:20:39.183Z,9.60
2024-01-04T17:23:07.445Z,8.90
2024-01-04T17:25:35.807Z,8.90
2024-01-04T17:28:04.178Z,8.20
2024-01-04T17:30:32.388Z,10.20
2024-01-04T17:33:02.222Z,10.60
2024-01-04T17:35:32.689Z,9.80
2024-01-04T17:38:04.122Z,9.90
2024-01-04T17:40:32.289Z,10.30
2024-01-04T17:43:00.753Z,10.60
2024-01-04T17:45:29.187Z,9.20
2024-01-04T17:47:57.856Z,9.70
2024-01-04T17:50:26.945Z,9.40
2024-01-04T17:52:55.772Z,10.10
2024-01-04T17:55:24.033Z,10.00
2024-01-04T17:57:52.379Z,9.40
2024-01-04T18:00:21.622Z,10.60
2024-01-04T18:02:50.039Z,10.80
2024-01-04T18:05:18.207Z,10.60
2024-01-04T18:07:47.217Z,11.20
2024-01-04T18:10:16.774Z,10.70
2024-01-04T18:12:45.057Z,13.10
2024-01-04T18:15:14.895Z,13.10
2024-01-04T18:17:43.341Z,10.60
2024-01-04T18:20:11.853Z,12.90
2024-01-04T18:22:41.183Z,10.60
2024-01-04T18:25:09.551Z,11.70
2024-01-04T18:27:37.724Z,10.60
2024-01-04T18:30:07.027Z,10.50
2024-01-04T18:32:37.177Z,11.10
2024-01-04T18:35:05.659Z,11.60
2024-01-04T18:37:33.878Z,11.80
2024-01-04T18:40:03.113Z,11.20
2024-01-04T18:42:31.299Z,12.10
2024-01-04T18:45:00.390Z,12.10
2024-01-04T18:47:30.884Z,11.10
2024-01-04T18:49:59.236Z,11.70
2024-01-04T18:52:27.387Z,13.80
2024-01-04T18:54:55.657Z,12.10
2024-01-04T18:57:26.331Z,12.20
2024-01-04T18:59:55.551Z,12.10
2024-01-04T19:02:24.918Z,12.90
2024-01-04T19:04:54.578Z,12.20
2024-01-04T19:07:24.140Z,13.30
2024-01-04T19:09:52.753Z,13.20
2024-01-04T19:12:21.126Z,13.70
2024-01-04T19:14:49.540Z,13.10
2024-01-04T19:17:17.688Z,14.10
2024-01-04T19:19:46.131Z,14.10
2024-01-04T19:22:15.224Z,14.50
2024-01-04T19:24:43.801Z,16.50
2024-01-04T19:27:13.102Z,14.40
2024-01-04T19:29:41.288Z,14.60
2024-01-04T19:32:09.550Z,13.30
2024-01-04T19:34:38.648Z,15.10
2024-01-04T19:37:06.755Z,14.80
2024-01-04T19:39:34.948Z,13.80
2024-01-04T19:42:03.250Z,13.60
2024-01-04T19:44:31.398Z,14.70
2024-01-04T19:46:59.405Z,14.60
2024-01-04T19:49:28.861Z,13.40
2024-01-04T19:51:57.137Z,15.90
2024-01-04T19:54:29.521Z,13.40
2024-01-04T19:56:58.397Z,14.40
2024-01-04T19:59:27.133Z,15.50
2024-01-04T20:01:55.343Z,14.90
2024-01-04T20:04:23.535Z,14.00
2024-01-04T20:06:51.653Z,15.60
2024-01-04T20:09:19.769Z,14.30
2024-01-04T20:11:48.862Z,15.50
2024-01-04T20:14:17.081Z,14.30
2024-01-04T20:16:45.642Z,14.50
2024-01-04T20:19:15.033Z,14.00
2024-01-04T20:21:43.893Z,14.30
2024-01-04T20:24:13.073Z,14.80
2024-01-04T20:26:41.380Z,15.00
2024-01-04T20:29:12.382Z,14.00
2024-01-04T20:31:41.406Z,13.80
2024-01-04T20:34:12.231Z,14.70
2024-01-04T20:36:41.250Z,14.60
2024-01-04T20:39:09.545Z,15.30
2024-01-04T20:41:37.777Z,13.40
2024-01-04T20:44:06.486Z,14.90
2024-01-04T20:46:34.643Z,14.50
2024-01-04T20:49:05.191Z,14.20
2024-01-04T20:51:33.618Z,14.20
2024-01-04T20:54:02.426Z,14.00
2024-01-04T20:56:30.517Z,13.80
2024-01-04T20:59:02.245Z,12.80
2024-01-04T21:01:30.497Z,12.30
2024-01-04T21:03:59.610Z,11.70
2024-01-04T21:06:28.575Z,12.90
2024-01-04T21:08:57.150Z,13.80
2024-01-04T21:11:25.363Z,12.70
2024-01-04T21:13:53.562Z,11.80
2024-01-04T21:16:21.847Z,11.70
2024-01-04T21:18:50.904Z,13.30
2024-01-04T21:21:19.295Z,12.40
2024-01-04T21:23:47.520Z,13.00
2024-01-04T21:26:15.598Z,12.80
2024-01-04T21:28:43.759Z,13.50
2024-01-04T21:31:13.042Z,11.90
2024-01-04T21:33:41.460Z,12.20
2024-01-04T21:36:11.504Z,13.40
2024-01-04T21:38:39.646Z,12.70
2024-01-04T21:41:08.413Z,12.50
2024-01-04T21:43:36.474Z,13.20
2024-01-04T21:46:05.357Z,14.30
2024-01-04T21:48:34.982Z,13.30
2024-01-04T21:51:03.702Z,13.40
2024-01-04T21:53:32.677Z,13.70
2024-01-04T21:56:00.963Z,13.00
2024-01-04T21:58:29.932Z,12.70
2024-01-04T22:00:59.487Z,12.70
2024-01-04T22:03:28.314Z,13.20
2024-01-04T22:05:57.807Z,12.80
2024-01-04T22:08:27.393Z,13.50
2024-01-04T22:10:56.342Z,14.30
2024-01-04T22:13:24.625Z,12.70
2024-01-04T22:15:52.828Z,13.60
2024-01-04T22:18:22.835Z,13.70
2024-01-04T22:20:51.180Z,12.60
2024-01-04T22:23:19.229Z,13.00
2024-01-04T22:25:47.492Z,15.10
2024-01-04T22:28:16.361Z,13.50
2024-01-04T22:30:47.089Z,15.20
2024-01-04T22:33:16.338Z,14.90
2024-01-04T22:35:44.732Z,13.40
2024-01-04T22:38:13.324Z,16.30
2024-01-04T22:40:42.445Z,16.20
2024-01-04T22:43:10.698Z,15.30
2024-01-04T22:45:38.802Z,15.80
2024-01-04T22:48:08.015Z,17.40
2024-01-04T22:50:37.017Z,15.90
2024-01-04T22:53:05.376Z,16.20
2024-01-04T22:55:33.664Z,16.80
2024-01-04T22:58:01.638Z,16.50
2024-01-04T23:00:33.781Z,17.30
2024-01-04T23:05:30.128Z,18.00
2024-01-04T23:07:58.257Z,15.80
2024-01-04T23:10:26.359Z,18.50
2024-01-04T23:12:55.078Z,17.40
2024-01-04T23:15:23.179Z,17.00
2024-01-04T23:17:51.951Z,16.40
2024-01-04T23:20:20.825Z,18.40
2024-01-04T23:22:50.984Z,16.40
2024-01-04T23:25:20.293Z,18.50
2024-01-04T23:27:48.256Z,17.80
2024-01-04T23:30:17.758Z,19.50
2024-01-04T23:32:46.034Z,18.90
2024-01-04T23:35:15.197Z,21.10
2024-01-04T23:37:44.067Z,17.90
2024-01-04T23:40:12.614Z,18.90
2024-01-04T23:42:40.795Z,20.40
2024-01-04T23:45:11.438Z,16.80
2024-01-04T23:47:39.608Z,17.50
2024-01-04T23:50:08.119Z,19.20
2024-01-04T23:52:36.544Z,17.10
2024-01-04T23:55:07.473Z,18.10
2024-01-04T23:57:35.711Z,16.90
